sensor_id;sensor_type;location;lat;lon;timestamp;pressure;altitude;pressure_sealevel;temperature;humidity
84617;BME280;74846;51.126;16.944;2024-02-14T00:02:22;100861.63;;;0.27;74.83
84617;BME280;74846;51.126;16.944;2024-02-14T00:04:50;100856.26;;;0.28;74.56
84617;BME280;74846;51.126;16.944;2024-02-14T00:07:19;100853.85;;;0.26;74.55
84617;BME280;74846;51.126;16.944;2024-02-14T00:09:48;100860.81;;;0.19;74.53
84617;BME280;74846;51.126;16.944;2024-02-14T00:12:16;100859.98;;;0.13;74.72
84617;BME280;74846;51.126;16.944;2024-02-14T00:14:44;100861.91;;;0.10;75.05
84617;BME280;74846;51.126;16.944;2024-02-14T00:17:12;100863.66;;;0.07;75.31
84617;BME280;74846;51.126;16.944;2024-02-14T00:19:40;100866.06;;;0.08;75.27
84617;BME280;74846;51.126;16.944;2024-02-14T00:22:08;100871.08;;;0.09;75.55
84617;BME280;74846;51.126;16.944;2024-02-14T00:24:36;100867.96;;;0.10;75.77
84617;BME280;74846;51.126;16.944;2024-02-14T00:27:04;100873.63;;;0.16;75.89
84617;BME280;74846;51.126;16.944;2024-02-14T00:29:32;100880.66;;;0.23;75.71
84617;BME280;74846;51.126;16.944;2024-02-14T00:32:02;100878.71;;;0.33;75.63
84617;BME280;74846;51.126;16.944;2024-02-14T00:34:30;100872.10;;;0.40;75.48
84617;BME280;74846;51.126;16.944;2024-02-14T00:36:58;100873.45;;;0.44;75.39
84617;BME280;74846;51.126;16.944;2024-02-14T00:39:26;100874.98;;;0.49;75.41
84617;BME280;74846;51.126;16.944;2024-02-14T00:41:54;100875.81;;;0.53;75.11
84617;BME280;74846;51.126;16.944;2024-02-14T00:44:23;100877.02;;;0.53;75.20
84617;BME280;74846;51.126;16.944;2024-02-14T00:46:58;100879.45;;;0.52;75.21
84617;BME280;74846;51.126;16.944;2024-02-14T00:49:27;100874.78;;;0.50;75.39
84617;BME280;74846;51.126;16.944;2024-02-14T00:51:55;100879.98;;;0.51;75.25
84617;BME280;74846;51.126;16.944;2024-02-14T00:54:23;100879.13;;;0.48;75.29
84617;BME280;74846;51.126;16.944;2024-02-14T00:56:52;100879.69;;;0.43;75.51
84617;BME280;74846;51.126;16.944;2024-02-14T00:59:20;100877.61;;;0.42;75.60
84617;BME280;74846;51.126;16.944;2024-02-14T01:01:48;100875.70;;;0.45;75.63
84617;BME280;74846;51.126;16.944;2024-02-14T01:04:16;100877.10;;;0.43;75.69
84617;BME280;74846;51.126;16.944;2024-02-14T01:06:44;100880.02;;;0.45;75.52
84617;BME280;74846;51.126;16.944;2024-02-14T01:09:13;100876.71;;;0.49;75.23
84617;BME280;74846;51.126;16.944;2024-02-14T01:11:41;100863.29;;;0.38;75.41
84617;BME280;74846;51.126;16.944;2024-02-14T01:14:09;100879.89;;;0.39;74.91
84617;BME280;74846;51.126;16.944;2024-02-14T01:16:43;100885.48;;;0.32;75.17
84617;BME280;74846;51.126;16.944;2024-02-14T01:19:13;100884.98;;;0.28;75.63
84617;BME280;74846;51.126;16.944;2024-02-14T01:21:42;100883.31;;;0.17;75.25
84617;BME280;74846;51.126;16.944;2024-02-14T01:24:12;100875.45;;;-0.01;75.34
84617;BME280;74846;51.126;16.944;2024-02-14T01:26:40;100874.98;;;-0.10;75.75
84617;BME280;74846;51.126;16.944;2024-02-14T01:29:08;100874.61;;;-0.09;75.89
84617;BME280;74846;51.126;16.944;2024-02-14T01:31:37;100875.30;;;-0.08;75.93
84617;BME280;74846;51.126;16.944;2024-02-14T01:34:05;100872.52;;;-0.04;75.84
84617;BME280;74846;51.126;16.944;2024-02-14T01:36:33;100873.38;;;-0.03;75.81
84617;BME280;74846;51.126;16.944;2024-02-14T01:39:01;100874.73;;;0.02;75.65
84617;BME280;74846;51.126;16.944;2024-02-14T01:41:30;100877.15;;;0.05;75.47
84617;BME280;74846;51.126;16.944;2024-02-14T01:43:58;100873.36;;;0.03;75.32
84617;BME280;74846;51.126;16.944;2024-02-14T01:46:27;100872.15;;;0.01;75.27
84617;BME280;74846;51.126;16.944;2024-02-14T01:48:56;100859.06;;;-0.10;75.17
84617;BME280;74846;51.126;16.944;2024-02-14T01:51:24;100870.83;;;-0.12;75.13
84617;BME280;74846;51.126;16.944;2024-02-14T01:53:54;100868.98;;;-0.21;75.28
84617;BME280;74846;51.126;16.944;2024-02-14T01:56:22;100876.77;;;-0.26;75.32
84617;BME280;74846;51.126;16.944;2024-02-14T01:58:52;100871.77;;;-0.32;75.34
84617;BME280;74846;51.126;16.944;2024-02-14T02:01:21;100874.04;;;-0.33;75.34
84617;BME280;74846;51.126;16.944;2024-02-14T02:03:51;100872.66;;;-0.34;75.32
84617;BME280;74846;51.126;16.944;2024-02-14T02:06:19;100871.10;;;-0.35;75.47
84617;BME280;74846;51.126;16.944;2024-02-14T02:08:47;100880.09;;;-0.35;75.41
84617;BME280;74846;51.126;16.944;2024-02-14T02:11:15;100873.68;;;-0.34;75.33
84617;BME280;74846;51.126;16.944;2024-02-14T02:13:43;100871.45;;;-0.33;75.00
84617;BME280;74846;51.126;16.944;2024-02-14T02:16:11;100870.91;;;-0.33;74.96
84617;BME280;74846;51.126;16.944;2024-02-14T02:18:40;100859.72;;;-0.40;74.79
84617;BME280;74846;51.126;16.944;2024-02-14T02:21:08;100864.02;;;-0.39;74.73
84617;BME280;74846;51.126;16.944;2024-02-14T02:23:36;100865.09;;;-0.45;74.66
84617;BME280;74846;51.126;16.944;2024-02-14T02:26:04;100860.27;;;-0.55;74.48
84617;BME280;74846;51.126;16.944;2024-02-14T02:28:32;100861.52;;;-0.66;75.10
84617;BME280;74846;51.126;16.944;2024-02-14T02:31:00;100860.50;;;-0.72;75.33
84617;BME280;74846;51.126;16.944;2024-02-14T02:33:28;100862.93;;;-0.74;75.37
84617;BME280;74846;51.126;16.944;2024-02-14T02:35:57;100864.14;;;-0.76;75.16
84617;BME280;74846;51.126;16.944;2024-02-14T02:38:25;100864.33;;;-0.78;75.19
84617;BME280;74846;51.126;16.944;2024-02-14T02:40:54;100867.77;;;-0.76;75.18
84617;BME280;74846;51.126;16.944;2024-02-14T02:43:22;100867.59;;;-0.72;75.33
84617;BME280;74846;51.126;16.944;2024-02-14T02:45:50;100860.86;;;-0.76;75.19
84617;BME280;74846;51.126;16.944;2024-02-14T02:48:18;100861.21;;;-0.80;75.38
84617;BME280;74846;51.126;16.944;2024-02-14T02:50:48;100862.09;;;-0.87;76.01
84617;BME280;74846;51.126;16.944;2024-02-14T02:53:18;100849.86;;;-0.97;76.18
84617;BME280;74846;51.126;16.944;2024-02-14T02:55:46;100857.61;;;-0.92;76.12
84617;BME280;74846;51.126;16.944;2024-02-14T02:58:14;100863.48;;;-0.95;76.37
84617;BME280;74846;51.126;16.944;2024-02-14T03:00:44;100866.77;;;-0.97;76.12
84617;BME280;74846;51.126;16.944;2024-02-14T03:03:12;100862.63;;;-1.02;75.34
84617;BME280;74846;51.126;16.944;2024-02-14T03:05:40;100847.11;;;-1.10;75.40
84617;BME280;74846;51.126;16.944;2024-02-14T03:08:08;100859.02;;;-1.05;75.68
84617;BME280;74846;51.126;16.944;2024-02-14T03:10:37;100852.79;;;-1.10;75.84
84617;BME280;74846;51.126;16.944;2024-02-14T03:13:06;100859.17;;;-1.05;76.18
84617;BME280;74846;51.126;16.944;2024-02-14T03:15:37;100861.24;;;-1.03;76.10
84617;BME280;74846;51.126;16.944;2024-02-14T03:18:05;100862.98;;;-0.99;75.95
84617;BME280;74846;51.126;16.944;2024-02-14T03:20:37;100859.33;;;-0.94;75.81
84617;BME280;74846;51.126;16.944;2024-02-14T03:23:05;100857.79;;;-0.93;75.38
84617;BME280;74846;51.126;16.944;2024-02-14T03:25:34;100860.02;;;-0.90;75.34
84617;BME280;74846;51.126;16.944;2024-02-14T03:28:04;100862.45;;;-0.93;75.28
84617;BME280;74846;51.126;16.944;2024-02-14T03:30:37;100865.04;;;-0.94;74.94
84617;BME280;74846;51.126;16.944;2024-02-14T03:33:07;100863.31;;;-0.98;75.24
84617;BME280;74846;51.126;16.944;2024-02-14T03:35:38;100855.56;;;-1.08;75.05
84617;BME280;74846;51.126;16.944;2024-02-14T03:38:06;100842.45;;;-1.22;74.96
84617;BME280;74846;51.126;16.944;2024-02-14T03:40:36;100863.33;;;-1.15;75.26
84617;BME280;74846;51.126;16.944;2024-02-14T03:43:06;100869.54;;;-1.17;75.40
84617;BME280;74846;51.126;16.944;2024-02-14T03:45:34;100870.58;;;-1.18;75.48
84617;BME280;74846;51.126;16.944;2024-02-14T03:48:02;100871.95;;;-1.19;75.54
84617;BME280;74846;51.126;16.944;2024-02-14T03:50:30;100874.03;;;-1.17;75.54
84617;BME280;74846;51.126;16.944;2024-02-14T03:52:58;100875.59;;;-1.14;75.40
84617;BME280;74846;51.126;16.944;2024-02-14T03:55:26;100874.55;;;-1.10;75.28
84617;BME280;74846;51.126;16.944;2024-02-14T03:57:54;100867.80;;;-1.08;75.10
84617;BME280;74846;51.126;16.944;2024-02-14T04:00:22;100875.92;;;-1.05;74.95
84617;BME280;74846;51.126;16.944;2024-02-14T04:02:50;100877.82;;;-1.06;75.08
84617;BME280;74846;51.126;16.944;2024-02-14T04:05:27;100877.65;;;-1.09;75.32
84617;BME280;74846;51.126;16.944;2024-02-14T04:07:55;100882.30;;;-1.12;75.17
84617;BME280;74846;51.126;16.944;2024-02-14T04:10:23;100883.52;;;-1.17;74.93
84617;BME280;74846;51.126;16.944;2024-02-14T04:12:52;100884.38;;;-1.25;75.19
84617;BME280;74846;51.126;16.944;2024-02-14T04:15:20;100888.52;;;-1.27;75.24
84617;BME280;74846;51.126;16.944;2024-02-14T04:17:48;100887.48;;;-1.27;75.34
84617;BME280;74846;51.126;16.944;2024-02-14T04:20:16;100888.70;;;-1.28;75.52
84617;BME280;74846;51.126;16.944;2024-02-14T04:22:44;100880.75;;;-1.29;75.57
84617;BME280;74846;51.126;16.944;2024-02-14T04:25:12;100878.17;;;-1.26;75.71
84617;BME280;74846;51.126;16.944;2024-02-14T04:27:40;100884.39;;;-1.21;75.50
84617;BME280;74846;51.126;16.944;2024-02-14T04:30:09;100886.98;;;-1.20;75.46
84617;BME280;74846;51.126;16.944;2024-02-14T04:32:37;100879.89;;;-1.21;75.38
84617;BME280;74846;51.126;16.944;2024-02-14T04:35:05;100885.94;;;-1.18;75.34
84617;BME280;74846;51.126;16.944;2024-02-14T04:37:34;100884.05;;;-1.24;75.44
84617;BME280;74846;51.126;16.944;2024-02-14T04:40:02;100885.77;;;-1.27;75.50
84617;BME280;74846;51.126;16.944;2024-02-14T04:42:32;100887.32;;;-1.29;75.52
84617;BME280;74846;51.126;16.944;2024-02-14T04:45:00;100879.04;;;-1.36;75.19
84617;BME280;74846;51.126;16.944;2024-02-14T04:47:28;100883.34;;;-1.39;75.36
84617;BME280;74846;51.126;16.944;2024-02-14T04:49:57;100883.87;;;-1.38;75.51
84617;BME280;74846;51.126;16.944;2024-02-14T04:52:26;100882.83;;;-1.35;75.70
84617;BME280;74846;51.126;16.944;2024-02-14T04:54:54;100881.79;;;-1.31;75.71
84617;BME280;74846;51.126;16.944;2024-02-14T04:57:23;100879.02;;;-1.29;75.88
84617;BME280;74846;51.126;16.944;2024-02-14T04:59:52;100882.15;;;-1.23;75.94
84617;BME280;74846;51.126;16.944;2024-02-14T05:02:20;100880.41;;;-1.20;75.82
84617;BME280;74846;51.126;16.944;2024-02-14T05:04:48;100879.37;;;-1.16;75.67
84617;BME280;74846;51.126;16.944;2024-02-14T05:07:16;100876.10;;;-1.13;75.57
84617;BME280;74846;51.126;16.944;2024-02-14T05:09:44;100873.69;;;-1.14;75.54
84617;BME280;74846;51.126;16.944;2024-02-14T05:12:13;100871.95;;;-1.16;75.45
84617;BME280;74846;51.126;16.944;2024-02-14T05:14:41;100875.93;;;-1.18;75.42
84617;BME280;74846;51.126;16.944;2024-02-14T05:17:09;100872.83;;;-1.24;75.49
84617;BME280;74846;51.126;16.944;2024-02-14T05:19:37;100873.86;;;-1.28;75.32
84617;BME280;74846;51.126;16.944;2024-02-14T05:22:05;100871.09;;;-1.31;75.49
84617;BME280;74846;51.126;16.944;2024-02-14T05:24:33;100871.79;;;-1.33;75.74
84617;BME280;74846;51.126;16.944;2024-02-14T05:27:04;100872.48;;;-1.34;75.80
84617;BME280;74846;51.126;16.944;2024-02-14T05:29:33;100874.20;;;-1.34;75.88
84617;BME280;74846;51.126;16.944;2024-02-14T05:32:03;100873.85;;;-1.36;75.83
84617;BME280;74846;51.126;16.944;2024-02-14T05:34:31;100877.65;;;-1.34;75.81
84617;BME280;74846;51.126;16.944;2024-02-14T05:37:00;100866.77;;;-1.38;75.55
84617;BME280;74846;51.126;16.944;2024-02-14T05:39:28;100871.77;;;-1.31;75.73
84617;BME280;74846;51.126;16.944;2024-02-14T05:41:56;100871.45;;;-1.29;75.81
84617;BME280;74846;51.126;16.944;2024-02-14T05:44:24;100867.13;;;-1.29;75.78
84617;BME280;74846;51.126;16.944;2024-02-14T05:46:54;100863.67;;;-1.30;75.55
84617;BME280;74846;51.126;16.944;2024-02-14T05:49:22;100866.44;;;-1.32;75.74
84617;BME280;74846;51.126;16.944;2024-02-14T05:51:53;100867.98;;;-1.35;75.69
84617;BME280;74846;51.126;16.944;2024-02-14T05:54:21;100866.45;;;-1.37;76.03
84617;BME280;74846;51.126;16.944;2024-02-14T05:56:49;100865.92;;;-1.33;76.17
84617;BME280;74846;51.126;16.944;2024-02-14T05:59:17;100863.67;;;-1.28;76.18
84617;BME280;74846;51.126;16.944;2024-02-14T06:01:45;100859.71;;;-1.22;76.26
84617;BME280;74846;51.126;16.944;2024-02-14T06:04:13;100858.85;;;-1.18;76.36
84617;BME280;74846;51.126;16.944;2024-02-14T06:06:42;100862.12;;;-1.14;76.57
84617;BME280;74846;51.126;16.944;2024-02-14T06:09:10;100858.66;;;-1.14;76.49
84617;BME280;74846;51.126;16.944;2024-02-14T06:11:40;100858.15;;;-1.11;76.53
84617;BME280;74846;51.126;16.944;2024-02-14T06:14:08;100857.80;;;-1.05;76.23
84617;BME280;74846;51.126;16.944;2024-02-14T06:16:36;100867.11;;;-0.97;76.27
84617;BME280;74846;51.126;16.944;2024-02-14T06:19:04;100865.39;;;-1.00;76.16
84617;BME280;74846;51.126;16.944;2024-02-14T06:21:34;100871.26;;;-1.03;76.11
84617;BME280;74846;51.126;16.944;2024-02-14T06:24:02;100876.77;;;-1.06;76.19
84617;BME280;74846;51.126;16.944;2024-02-14T06:26:34;100877.13;;;-1.07;76.49
84617;BME280;74846;51.126;16.944;2024-02-14T06:29:02;100881.61;;;-1.05;76.42
84617;BME280;74846;51.126;16.944;2024-02-14T06:31:33;100882.48;;;-1.00;76.78
84617;BME280;74846;51.126;16.944;2024-02-14T06:34:01;100883.34;;;-0.99;77.06
84617;BME280;74846;51.126;16.944;2024-02-14T06:36:30;100883.86;;;-0.94;77.11
84617;BME280;74846;51.126;16.944;2024-02-14T06:38:58;100887.81;;;-0.83;77.15
84617;BME280;74846;51.126;16.944;2024-02-14T06:41:26;100879.86;;;-0.77;76.90
84617;BME280;74846;51.126;16.944;2024-02-14T06:43:54;100886.74;;;-0.67;76.66
84617;BME280;74846;51.126;16.944;2024-02-14T06:46:22;100889.16;;;-0.63;76.41
84617;BME280;74846;51.126;16.944;2024-02-14T06:48:51;100892.08;;;-0.58;76.58
84617;BME280;74846;51.126;16.944;2024-02-14T06:51:19;100889.65;;;-0.54;76.56
84617;BME280;74846;51.126;16.944;2024-02-14T06:53:49;100889.65;;;-0.52;76.37
84617;BME280;74846;51.126;16.944;2024-02-14T06:56:17;100889.11;;;-0.49;76.54
84617;BME280;74846;51.126;16.944;2024-02-14T06:58:45;100894.97;;;-0.41;76.80
84617;BME280;74846;51.126;16.944;2024-02-14T07:01:14;100901.15;;;-0.32;76.92
84617;BME280;74846;51.126;16.944;2024-02-14T07:03:45;100900.94;;;-0.20;77.05
84617;BME280;74846;51.126;16.944;2024-02-14T07:06:15;100901.05;;;-0.05;77.04
84617;BME280;74846;51.126;16.944;2024-02-14T07:08:43;100891.30;;;0.08;76.83
84617;BME280;74846;51.126;16.944;2024-02-14T07:11:11;100894.88;;;0.19;76.88
84617;BME280;74846;51.126;16.944;2024-02-14T07:13:39;100895.52;;;0.29;76.67
84617;BME280;74846;51.126;16.944;2024-02-14T07:16:07;100887.53;;;0.33;76.65
84617;BME280;74846;51.126;16.944;2024-02-14T07:18:38;100890.23;;;0.44;76.62
84617;BME280;74846;51.126;16.944;2024-02-14T07:21:07;100884.48;;;0.49;76.70
84617;BME280;74846;51.126;16.944;2024-02-14T07:23:35;100879.77;;;0.58;76.92
84617;BME280;74846;51.126;16.944;2024-02-14T07:26:03;100878.98;;;0.68;76.80
84617;BME280;74846;51.126;16.944;2024-02-14T07:28:32;100881.16;;;0.78;77.67
84617;BME280;74846;51.126;16.944;2024-02-14T07:30:59;100881.21;;;0.92;77.91
84617;BME280;74846;51.126;16.944;2024-02-14T07:33:28;100879.88;;;1.06;77.94
84617;BME280;74846;51.126;16.944;2024-02-14T07:35:56;100877.64;;;1.22;77.84
84617;BME280;74846;51.126;16.944;2024-02-14T07:38:24;100876.29;;;1.36;77.75
84617;BME280;74846;51.126;16.944;2024-02-14T07:40:52;100875.75;;;1.54;77.73
84617;BME280;74846;51.126;16.944;2024-02-14T07:43:20;100868.32;;;1.66;77.64
84617;BME280;74846;51.126;16.944;2024-02-14T07:45:48;100862.55;;;1.85;77.51
84617;BME280;74846;51.126;16.944;2024-02-14T07:48:17;100864.83;;;1.97;77.24
84617;BME280;74846;51.126;16.944;2024-02-14T07:50:45;100867.60;;;2.09;76.85
84617;BME280;74846;51.126;16.944;2024-02-14T07:53:13;100871.13;;;2.18;76.67
84617;BME280;74846;51.126;16.944;2024-02-14T07:55:41;100867.36;;;2.27;76.57
84617;BME280;74846;51.126;16.944;2024-02-14T07:58:09;100869.84;;;2.35;76.52
84617;BME280;74846;51.126;16.944;2024-02-14T08:00:37;100866.58;;;2.45;76.52
84617;BME280;74846;51.126;16.944;2024-02-14T08:03:05;100861.00;;;2.58;76.68
84617;BME280;74846;51.126;16.944;2024-02-14T08:05:34;100865.63;;;2.72;76.63
84617;BME280;74846;51.126;16.944;2024-02-14T08:08:02;100871.67;;;2.84;76.76
84617;BME280;74846;51.126;16.944;2024-02-14T08:10:30;100855.29;;;2.89;76.58
84617;BME280;74846;51.126;16.944;2024-02-14T08:12:58;100875.45;;;3.17;75.95
84617;BME280;74846;51.126;16.944;2024-02-14T08:15:26;100868.90;;;3.24;75.53
84617;BME280;74846;51.126;16.944;2024-02-14T08:17:54;100864.76;;;3.32;75.53
84617;BME280;74846;51.126;16.944;2024-02-14T08:20:29;100871.42;;;3.47;75.47
84617;BME280;74846;51.126;16.944;2024-02-14T08:22:57;100864.55;;;3.52;75.32
84617;BME280;74846;51.126;16.944;2024-02-14T08:25:25;100865.38;;;3.71;74.97
84617;BME280;74846;51.126;16.944;2024-02-14T08:27:54;100867.88;;;3.77;74.94
84617;BME280;74846;51.126;16.944;2024-02-14T08:30:22;100867.16;;;3.86;74.88
84617;BME280;74846;51.126;16.944;2024-02-14T08:32:50;100869.86;;;3.99;75.22
84617;BME280;74846;51.126;16.944;2024-02-14T08:35:19;100874.30;;;4.11;75.03
84617;BME280;74846;51.126;16.944;2024-02-14T08:37:47;100870.71;;;4.24;75.21
84617;BME280;74846;51.126;16.944;2024-02-14T08:40:15;100867.30;;;4.36;74.72
84617;BME280;74846;51.126;16.944;2024-02-14T08:42:43;100870.08;;;4.44;74.25
84617;BME280;74846;51.126;16.944;2024-02-14T08:45:11;100870.00;;;4.55;73.92
84617;BME280;74846;51.126;16.944;2024-02-14T08:47:39;100875.31;;;4.66;73.34
84617;BME280;74846;51.126;16.944;2024-02-14T08:50:11;100873.61;;;4.78;73.51
84617;BME280;74846;51.126;16.944;2024-02-14T08:52:39;100876.10;;;4.98;73.21
84617;BME280;74846;51.126;16.944;2024-02-14T08:55:08;100876.78;;;5.18;72.41
84617;BME280;74846;51.126;16.944;2024-02-14T08:57:42;100875.61;;;5.30;72.05
84617;BME280;74846;51.126;16.944;2024-02-14T09:00:11;100874.98;;;5.40;72.35
84617;BME280;74846;51.126;16.944;2024-02-14T09:02:41;100869.85;;;5.55;71.83
84617;BME280;74846;51.126;16.944;2024-02-14T09:05:08;100871.10;;;5.67;72.07
84617;BME280;74846;51.126;16.944;2024-02-14T09:07:37;100866.41;;;5.79;72.11
84617;BME280;74846;51.126;16.944;2024-02-14T09:10:05;100860.70;;;5.96;71.78
84617;BME280;74846;51.126;16.944;2024-02-14T09:12:34;100856.79;;;6.10;71.49
84617;BME280;74846;51.126;16.944;2024-02-14T09:15:02;100861.29;;;6.29;70.56
84617;BME280;74846;51.126;16.944;2024-02-14T09:17:32;100856.70;;;6.41;70.07
84617;BME280;74846;51.126;16.944;2024-02-14T09:20:01;100852.69;;;6.52;69.93
84617;BME280;74846;51.126;16.944;2024-02-14T09:22:29;100855.68;;;6.68;69.60
84617;BME280;74846;51.126;16.944;2024-02-14T09:24:57;100854.65;;;6.84;69.22
84617;BME280;74846;51.126;16.944;2024-02-14T09:27:25;100855.27;;;6.96;68.41
84617;BME280;74846;51.126;16.944;2024-02-14T09:29:53;100846.35;;;7.01;68.43
84617;BME280;74846;51.126;16.944;2024-02-14T09:32:22;100847.29;;;7.14;68.59
84617;BME280;74846;51.126;16.944;2024-02-14T09:34:50;100851.80;;;7.26;68.57
84617;BME280;74846;51.126;16.944;2024-02-14T09:37:18;100855.45;;;7.36;68.09
84617;BME280;74846;51.126;16.944;2024-02-14T09:39:46;100846.61;;;7.44;68.06
84617;BME280;74846;51.126;16.944;2024-02-14T09:42:16;100849.03;;;7.60;67.13
84617;BME280;74846;51.126;16.944;2024-02-14T09:44:48;100848.35;;;7.69;67.47
84617;BME280;74846;51.126;16.944;2024-02-14T09:47:19;100847.09;;;7.84;68.16
84617;BME280;74846;51.126;16.944;2024-02-14T09:49:48;100841.32;;;7.97;67.34
84617;BME280;74846;51.126;16.944;2024-02-14T09:52:17;100843.80;;;8.19;67.66
84617;BME280;74846;51.126;16.944;2024-02-14T09:54:48;100840.55;;;8.32;66.24
84617;BME280;74846;51.126;16.944;2024-02-14T09:57:16;100840.56;;;8.44;65.88
84617;BME280;74846;51.126;16.944;2024-02-14T09:59:45;100840.31;;;8.55;65.26
84617;BME280;74846;51.126;16.944;2024-02-14T10:02:13;100840.98;;;8.64;63.81
84617;BME280;74846;51.126;16.944;2024-02-14T10:04:41;100836.55;;;8.70;64.79
84617;BME280;74846;51.126;16.944;2024-02-14T10:07:09;100831.73;;;8.80;63.92
84617;BME280;74846;51.126;16.944;2024-02-14T10:09:41;100831.06;;;8.84;62.72
84617;BME280;74846;51.126;16.944;2024-02-14T10:12:10;100828.83;;;8.82;63.29
84617;BME280;74846;51.126;16.944;2024-02-14T10:14:38;100828.36;;;8.86;62.62
84617;BME280;74846;51.126;16.944;2024-02-14T10:17:07;100822.16;;;8.87;62.23
84617;BME280;74846;51.126;16.944;2024-02-14T10:19:37;100821.27;;;8.96;62.51
84617;BME280;74846;51.126;16.944;2024-02-14T10:22:05;100814.13;;;9.02;61.93
84617;BME280;74846;51.126;16.944;2024-02-14T10:24:35;100802.33;;;8.99;62.04
84617;BME280;74846;51.126;16.944;2024-02-14T10:27:06;100803.90;;;9.08;60.66
84617;BME280;74846;51.126;16.944;2024-02-14T10:29:36;100797.42;;;9.15;61.87
84617;BME280;74846;51.126;16.944;2024-02-14T10:32:05;100793.34;;;9.25;61.96
84617;BME280;74846;51.126;16.944;2024-02-14T10:34:33;100787.86;;;9.34;61.05
84617;BME280;74846;51.126;16.944;2024-02-14T10:37:03;100784.54;;;9.37;60.85
84617;BME280;74846;51.126;16.944;2024-02-14T10:39:32;100777.27;;;9.39;60.73
84617;BME280;74846;51.126;16.944;2024-02-14T10:42:00;100783.24;;;9.38;60.12
84617;BME280;74846;51.126;16.944;2024-02-14T10:44:29;100780.84;;;9.45;60.18
84617;BME280;74846;51.126;16.944;2024-02-14T10:47:00;100777.88;;;9.48;60.32
84617;BME280;74846;51.126;16.944;2024-02-14T10:49:30;100778.15;;;9.50;60.25
84617;BME280;74846;51.126;16.944;2024-02-14T10:51:59;100771.98;;;9.55;60.54
84617;BME280;74846;51.126;16.944;2024-02-14T10:54:33;100768.02;;;9.61;60.23
84617;BME280;74846;51.126;16.944;2024-02-14T10:57:05;100768.89;;;9.68;60.69
84617;BME280;74846;51.126;16.944;2024-02-14T10:59:43;100762.64;;;9.82;59.87
84617;BME280;74846;51.126;16.944;2024-02-14T11:02:12;100760.59;;;9.92;58.19
84617;BME280;74846;51.126;16.944;2024-02-14T11:04:41;100755.12;;;9.92;57.73
84617;BME280;74846;51.126;16.944;2024-02-14T11:07:09;100756.74;;;9.99;57.70
84617;BME280;74846;51.126;16.944;2024-02-14T11:09:38;100752.38;;;10.02;57.53
84617;BME280;74846;51.126;16.944;2024-02-14T11:12:09;100752.23;;;10.13;57.49
84617;BME280;74846;51.126;16.944;2024-02-14T11:14:42;100741.77;;;10.22;57.34
84617;BME280;74846;51.126;16.944;2024-02-14T11:17:12;100745.81;;;10.25;56.92
84617;BME280;74846;51.126;16.944;2024-02-14T11:19:40;100740.46;;;10.31;57.62
84617;BME280;74846;51.126;16.944;2024-02-14T11:22:19;100738.92;;;10.47;56.65
84617;BME280;74846;51.126;16.944;2024-02-14T11:24:48;100739.63;;;10.62;56.46
84617;BME280;74846;51.126;16.944;2024-02-14T11:27:19;100738.36;;;10.76;56.05
84617;BME280;74846;51.126;16.944;2024-02-14T11:30:01;100727.89;;;10.95;56.29
84617;BME280;74846;51.126;16.944;2024-02-14T11:32:31;100720.27;;;11.06;55.45
84617;BME280;74846;51.126;16.944;2024-02-14T11:35:00;100724.03;;;11.21;55.69
84617;BME280;74846;51.126;16.944;2024-02-14T11:37:29;100717.63;;;11.35;55.05
84617;BME280;74846;51.126;16.944;2024-02-14T11:39:57;100717.93;;;11.49;54.77
84617;BME280;74846;51.126;16.944;2024-02-14T11:42:26;100715.05;;;11.60;54.64
84617;BME280;74846;51.126;16.944;2024-02-14T11:44:55;100716.66;;;11.63;54.19
84617;BME280;74846;51.126;16.944;2024-02-14T11:47:24;100716.08;;;11.60;53.68
84617;BME280;74846;51.126;16.944;2024-02-14T11:49:53;100710.68;;;11.53;53.13
84617;BME280;74846;51.126;16.944;2024-02-14T11:52:22;100703.33;;;11.43;53.10
84617;BME280;74846;51.126;16.944;2024-02-14T11:54:50;100703.16;;;11.33;53.74
84617;BME280;74846;51.126;16.944;2024-02-14T11:57:18;100690.51;;;11.26;53.76
84617;BME280;74846;51.126;16.944;2024-02-14T11:59:49;100697.44;;;11.31;52.48
84617;BME280;74846;51.126;16.944;2024-02-14T12:02:21;100693.27;;;11.17;52.53
84617;BME280;74846;51.126;16.944;2024-02-14T12:04:49;100681.69;;;11.13;53.04
84617;BME280;74846;51.126;16.944;2024-02-14T12:07:23;100682.94;;;11.13;52.92
84617;BME280;74846;51.126;16.944;2024-02-14T12:09:55;100683.52;;;11.18;52.86
84617;BME280;74846;51.126;16.944;2024-02-14T12:12:23;100677.27;;;11.17;51.91
84617;BME280;74846;51.126;16.944;2024-02-14T12:14:52;100678.53;;;11.19;51.36
84617;BME280;74846;51.126;16.944;2024-02-14T12:17:20;100674.90;;;11.21;50.31
84617;BME280;74846;51.126;16.944;2024-02-14T12:19:50;100673.54;;;11.24;50.07
84617;BME280;74846;51.126;16.944;2024-02-14T12:22:21;100672.77;;;11.22;50.34
84617;BME280;74846;51.126;16.944;2024-02-14T12:24:49;100673.55;;;11.30;49.22
84617;BME280;74846;51.126;16.944;2024-02-14T12:27:19;100670.55;;;11.34;50.16
84617;BME280;74846;51.126;16.944;2024-02-14T12:29:47;100668.10;;;11.46;49.47
84617;BME280;74846;51.126;16.944;2024-02-14T12:32:16;100668.30;;;11.49;49.75
84617;BME280;74846;51.126;16.944;2024-02-14T12:34:45;100670.19;;;11.56;49.91
84617;BME280;74846;51.126;16.944;2024-02-14T12:37:13;100668.60;;;11.62;49.95
84617;BME280;74846;51.126;16.944;2024-02-14T12:39:41;100667.12;;;11.74;49.78
84617;BME280;74846;51.126;16.944;2024-02-14T12:42:09;100663.01;;;11.68;49.96
84617;BME280;74846;51.126;16.944;2024-02-14T12:44:38;100655.40;;;11.72;50.16
84617;BME280;74846;51.126;16.944;2024-02-14T12:47:06;100653.44;;;11.76;50.22
84617;BME280;74846;51.126;16.944;2024-02-14T12:49:35;100656.54;;;11.83;50.53
84617;BME280;74846;51.126;16.944;2024-02-14T12:52:04;100655.23;;;11.94;50.34
84617;BME280;74846;51.126;16.944;2024-02-14T12:54:32;100650.89;;;12.01;50.28